Time;durP1;ratioP1;P1;durP2;ratioP2;P2;SDS_P1;SDS_P2;PMS_P1;PMS_P2;Temp;Humidity;BMP_temperature;BMP_pressure;BME280_temperature;BME280_humidity;BME280_pressure;Samples;Min_cycle;Max_cycle;Signal;HPM_P1;HPM_P2
2022/06/04 21:06:32;;;;;;;68.87;5.00;;;23.80;1.00;;;;;;3348694;23;20499;-84
2022/06/04 21:08:58;;;;;;;67.73;4.83;;;23.70;1.00;;;;;;4915858;29;20431;-86
2022/06/04 21:11:24;;;;;;;68.00;5.30;;;23.60;1.00;;;;;;4904146;29;20410;-84
2022/06/04 21:13:51;;;;;;;70.07;6.30;;;23.50;1.00;;;;;;4906617;29;20418;-85
2022/06/04 21:16:23;;;;;;;68.50;5.60;;;23.60;1.00;;;;;;4910670;29;20491;-85
2022/06/04 21:18:51;;;;;;;68.37;5.33;;;23.70;1.00;;;;;;4922487;23;20439;-85
2022/06/04 21:21:17;;;;;;;68.57;5.57;;;23.60;1.00;;;;;;4899145;29;20403;-85
2022/06/04 21:23:44;;;;;;;71.47;6.70;;;23.70;1.00;;;;;;4897662;29;20406;-85
2022/06/04 21:26:35;;;;;;;70.53;7.40;;;23.60;1.00;;;;;;4882033;29;20251;-85
2022/06/04 21:29:05;;;;;;;68.40;6.30;;;23.50;1.00;;;;;;4899036;29;20403;-85
2022/06/04 21:31:32;;;;;;;69.27;6.43;;;23.60;1.00;;;;;;4901005;29;20402;-86
2022/06/04 21:33:59;;;;;;;68.60;6.97;;;23.50;1.00;;;;;;4917706;29;20912;-86
2022/06/04 21:39:15;;;;;;;74.00;7.50;;;23.40;4.80;;;;;;4917950;29;20526;-86
2022/06/04 21:41:41;;;;;;;68.37;7.40;;;23.40;6.70;;;;;;4900651;29;20936;-86
2022/06/04 21:44:09;;;;;;;67.97;7.80;;;23.20;9.80;;;;;;4900524;29;20425;-86
2022/06/04 21:46:36;;;;;;;68.67;7.47;;;23.20;10.60;;;;;;4901037;29;20525;-86
2022/06/04 21:49:03;;;;;;;69.50;6.23;;;23.20;13.00;;;;;;4901343;29;20785;-85
2022/06/04 21:51:29;;;;;;;68.47;6.13;;;23.10;19.60;;;;;;4901088;29;20469;-86
2022/06/04 21:53:55;;;;;;;69.27;6.00;;;23.10;22.50;;;;;;4918265;29;20413;-86
2022/06/04 21:56:21;;;;;;;69.90;6.23;;;23.00;20.80;;;;;;4917166;29;20467;-86
2022/06/04 21:58:47;;;;;;;68.37;6.47;;;22.90;24.50;;;;;;4900342;29;21011;-86
2022/06/04 22:01:25;;;;;;;71.50;6.10;;;22.90;22.50;;;;;;4917266;29;20166;-86
2022/06/04 22:03:55;;;;;;;69.13;6.17;;;22.90;24.60;;;;;;4900242;29;20173;-86
2022/06/04 22:06:21;;;;;;;68.50;5.97;;;22.90;23.80;;;;;;4900184;29;20429;-85
2022/06/04 22:08:51;;;;;;;68.30;5.93;;;22.80;26.70;;;;;;4917485;29;20413;-86
2022/06/04 22:11:21;;;;;;;67.00;5.30;;;22.80;30.70;;;;;;4917160;29;20547;-86
2022/06/04 22:13:50;;;;;;;70.60;7.23;;;22.60;31.60;;;;;;4917417;29;20395;-86
2022/06/04 22:16:17;;;;;;;68.70;6.63;;;22.60;33.00;;;;;;4900760;29;20994;-85
2022/06/04 22:18:43;;;;;;;69.63;6.90;;;22.60;33.30;;;;;;4917246;29;20438;-86
2022/06/04 22:21:19;;;;;;;69.43;6.57;;;22.50;36.30;;;;;;4900332;29;20493;-85
2022/06/04 22:23:45;;;;;;;68.77;6.97;;;22.40;38.70;;;;;;4916887;29;20412;-86
2022/06/04 22:26:11;;;;;;;69.43;7.30;;;22.30;42.30;;;;;;4902960;29;20983;-86
2022/06/04 22:28:36;;;;;;;67.73;6.60;;;22.30;44.60;;;;;;4903629;29;20426;-86
2022/06/04 22:31:02;;;;;;;67.57;6.30;;;22.40;41.60;;;;;;4904594;29;20173;-86
2022/06/04 22:33:28;;;;;;;69.23;7.60;;;22.30;44.20;;;;;;4921099;29;20176;-85
2022/06/04 22:35:54;;;;;;;68.67;8.10;;;22.30;45.50;;;;;;4920500;29;20678;-86
2022/06/04 22:38:20;;;;;;;69.90;8.43;;;22.20;50.00;;;;;;4903788;29;20432;-86
2022/06/04 22:40:50;;;;;;;70.63;11.00;;;22.10;49.50;;;;;;4920733;29;20169;-86
2022/06/04 22:43:16;;;;;;;70.30;11.40;;;22.10;56.90;;;;;;4920514;29;20410;-86
2022/06/04 22:45:43;;;;;;;69.80;11.23;;;22.10;51.00;;;;;;4904411;29;20788;-86
2022/06/04 22:48:10;;;;;;;68.77;11.77;;;22.00;55.30;;;;;;4920719;29;20417;-86
2022/06/04 22:50:37;;;;;;;71.47;13.03;;;21.90;60.10;;;;;;4921029;29;20409;-86
2022/06/04 22:53:04;;;;;;;69.87;13.50;;;21.90;61.00;;;;;;4903721;29;20432;-86
2022/06/04 22:55:34;;;;;;;72.70;15.07;;;21.80;62.90;;;;;;4920797;29;20437;-86
2022/06/04 22:58:00;;;;;;;70.70;14.20;;;21.90;61.70;;;;;;4921223;29;20615;-86
2022/06/04 23:00:28;;;;;;;71.20;14.00;;;22.00;56.10;;;;;;4903765;29;20983;-87
2022/06/04 23:02:54;;;;;;;70.27;13.43;;;22.00;58.90;;;;;;4903985;29;20428;-86
2022/06/04 23:05:20;;;;;;;70.83;14.67;;;21.90;57.00;;;;;;4920399;29;20464;-86
2022/06/04 23:07:46;;;;;;;71.47;16.50;;;22.00;56.50;;;;;;4903970;29;20409;-86
2022/06/04 23:21:17;;;;;;;69.27;12.20;;;21.60;64.20;;;;;;4920392;29;20401;-86
2022/06/04 23:23:43;;;;;;;70.27;12.10;;;21.50;70.40;;;;;;4904277;29;20405;-86
2022/06/04 23:26:10;;;;;;;69.13;11.43;;;21.40;73.90;;;;;;4920327;29;20808;-86
2022/06/04 23:28:39;;;;;;;69.87;11.67;;;21.30;75.80;;;;;;4903991;29;20268;-86
2022/06/04 23:31:07;;;;;;;72.17;10.73;;;21.20;80.20;;;;;;4919612;29;20433;-86
2022/06/04 23:33:34;;;;;;;69.80;10.40;;;21.30;76.80;;;;;;4920047;29;20433;-86
2022/06/04 23:36:03;;;;;;;69.07;9.27;;;21.30;79.40;;;;;;4902816;29;20457;-86
2022/06/04 23:38:29;;;;;;;69.30;9.20;;;21.20;76.40;;;;;;4902710;29;20437;-86
2022/06/04 23:41:00;;;;;;;69.53;9.13;;;21.30;75.30;;;;;;4902954;29;20449;-86
2022/06/04 23:43:27;;;;;;;68.53;9.43;;;21.20;80.90;;;;;;4902582;29;20421;-86
2022/06/04 23:45:54;;;;;;;70.27;9.50;;;21.20;77.00;;;;;;4903004;29;20524;-86
2022/06/04 23:48:20;;;;;;;68.10;8.60;;;21.30;78.50;;;;;;4902565;29;20996;-86
2022/06/04 23:50:49;;;;;;;68.80;8.90;;;21.20;78.80;;;;;;4919909;29;20519;-86
2022/06/04 23:53:20;;;;;;;69.10;8.77;;;21.20;79.50;;;;;;4902605;29;20468;-86
2022/06/04 23:55:46;;;;;;;67.50;7.30;;;21.00;87.90;;;;;;4919239;29;20445;-85
2022/06/04 23:58:15;;;;;;;69.83;8.17;;;21.10;80.00;;;;;;4902188;29;20421;-86
